Pl Nom - Surname TEMPS - Time S-Cat /cat Club - Team Km/h /sx PAYS REEL Diplôme Actions
1 DE LUSTRAC ARNAUD   (4338) 00:33:35 MSE 1 Kebab League 18,8 1 France 00:35:05
2 BREUILH PHILIPPE   (4462) 00:35:47 MM1 1 COGNAC AC 17,6 2 France 00:35:46
3 AUGUIN AMAURY   (4197) 00:35:49 MSE 2 COGNAC AC 17,6 3 France 00:36:21
4 THORIN MAXIME   (4062) 00:36:00 MSE 3 AC GIGOUZAC ST GERMAIN 17,5 4 France 00:37:31
5 ASTIC THOMAS   (4986) 00:36:22 MSE 4 COGNAC AC 17,3 5 France 00:37:52
6 PONTCHARRAUD LUDOVIC   (4701) 00:37:07 MM2 1 Royer 17 6 France 00:39:29
7 LABADIE VALENTIN   (4421) 00:37:37 MSE 5 EAMYA 16,7 7 France 00:39:57
8 GLANDIER YVAN   (4875) 00:37:59 MM1 2 SAINTES TRIATHLON 16,6 8 France 00:40:19
9 GRACIANNETTE GAETAN   (4953) 00:38:08 MSE 6   16,5 9 France 00:38:06
10 LAVOYE VINCENT   (4028) 00:38:40 MSE 7 OUIRUN - LA ROCHELLE 16,3 10 France 00:41:00
11 BOITEAU CHRISTOPHE   (4689) 00:39:07 MM3 1 BOULIAC SPORTS PLAISIRS 16,1 11 France 00:41:28
12 AVINIO LAURINE   (4534) 00:39:07 FES 1 COGNAC AC 16,1 1 France 00:40:51
13 VAUTIER ÉMERIC   (5002) 00:39:52 MM3 2 sans appartenance 15,8 12 France 00:39:48
14 FOREL ROMAIN   (1799) 00:39:52 MM0 1 T24 XTREM TRIATHLON 15,8 13 France 00:39:50
15 COUVRET MATHYS   (4667) 00:39:54 MJU 1 MUTUELLE DE POITIERS ASSURANCES JARNAC 15,8 14 France 00:39:58
16 BERLUREAU NATHAN   (4922) 00:39:57 MJU 2 COGNAC AC 15,8 15 France 00:39:56
17 BRULE CYRIL   (4326) 00:40:05 MM1 3   15,7 16 France 00:41:09
18 BORDENAVE NOHA   (4966) 00:40:21 MCA 1 COGNAC ATHLETIQUE CLUB 15,6 17 France 00:42:42
19 MOUSSET JEAN MICHEL   (4744) 00:40:28 MM1 4 BAROUDEUR de PUISSEGUIN 15,6 18 France 00:40:26
20 BEDON HUGO   (4273) 00:40:42 MES 1 Rouillac run''n''trail 15,5 19 France 00:40:41
21 REY ANTONY   (4745) 00:40:52 MM4 1 SC ARES 15,4 20 France 00:43:14
22 VINET DAMIEN   (4121) 00:41:43 MSE 8   15,1 21 France 00:41:40
23 GABORIT RAPHAËL   (4550) 00:41:44 MM3 3 TEAM TARANSAUD 15,1 22 France 00:41:29
24 PAGEAUD DAMIEN   (4895) 00:42:16 MM2 2 TEAM OUINS OUINS 14,9 23 France 00:42:12
25 ANDRE JEAN LUC   (4278) 00:42:16 MM4 2 JARNAC ATHLETISME 14,9 24 France 00:42:11
26 BOURDOIS AUGUSTIN   (4803) 00:42:42 MES 2   14,8 25 France 00:42:36
27 LAROSE THOMAS   (4781) 00:42:44 MSE 9   14,7 26 France 00:42:39
28 SEGUIN ALEXIS   (4866) 00:42:44 MJU 3   14,7 27 France 00:42:40
29 BRETHENOUX MICHEL   (4605) 00:42:51 MM4 3 Jarnac 14,7 28 France 00:42:45
30 CORNUAUD VIVIEN   (4523) 00:42:55 MSE 10 nid d'abeille 14,7 29 France 00:42:46
31 MONY THOMAS   (4679) 00:43:04 MSE 11   14,6 30 France 00:42:54
32 FERRINI JÉROME   (4725) 00:43:10 MM2 3 aventure running segonzac 14,6 31 France 00:43:07
33 MEHEUT LAURE   (4073) 00:43:11 FM1 1   14,6 2 France 00:43:07
34 DEVENNE WILFRIED   (4792) 00:43:15 MM2 4   14,6 32 France 00:45:10
35 COUDIN GAETAN   (4649) 00:43:20 MSE 12 US MARMANDE ATHLETISME 14,5 33 France 00:44:51
36 SASSIER CORENTIN   (4047) 00:43:32 MSE 13 Tours' N Pierres 14,5 34 France 00:43:29
37 GUERIN DAVID   (4878) 00:43:34 MM3 4 LIMOGES ATHLE* 14,5 35 France 00:43:31
38 JANVIER THIERRY   (4350) 00:43:43 MM5 1 J.S. ANGOULEME TRIATHLON 14,4 36 France 00:43:41
39 SOURY-GAUTHIER THÉO   (4864) 00:43:46 MJU 4   14,4 37 France 00:43:42
40 BILLON JULIEN   (4554) 00:43:47 MM1 5 S/L ATHLETIC CLUB ANGERIEN 14,4 38 France 00:43:40
41 TARIZZO VIOLAINE   (4339) 00:43:52 FSE 1 Kebab League 14,4 3 France 00:46:12
42 GILLET THIBAUT   (4465) 00:43:56 MM0 2 CLUB LOISIRS BOINAUD 14,3 39 France 00:43:54
43 HEDAN LUDOVIC   (4749) 00:43:59 MM2 5 FRATER ATHLE BARRET BARBEZIEUX 14,3 40 France 00:44:38
44 FAIVRE CLEMENT   (4923) 00:44:03 MCA 2 Foussignac 14,3 41 France 00:43:51
45 PALLAS THIBAUT   (4406) 00:44:08 MCA 3 COGNAC AC 14,3 42 France 00:46:30
46 DEMEY THÉO   (4480) 00:44:15 MSE 14 SAM Paris 12 14,2 43 France 00:44:10
47 DESCOUBES PEYO   (4913) 00:44:22 MCA 4 MUTUELLE DE POITIERS ASSURANCES JARNAC 14,2 44 France 00:44:11
48 RADIER CORENTIN   (4871) 00:44:23 MSE 15   14,2 45 Royaume-Uni 00:43:25
49 DESCOUBES JULIEN   (4969) 00:44:24 MM1 6 MUTUELLE DE POITIERS ASSURANCES JARNAC 14,2 46 France 00:44:12
50 MISSIO QUENTIN   (4869) 00:44:34 MSE 16   14,1 47 France 00:43:29
51 JOLLY VALENTIN   (4448) 00:44:35 MSE 17   14,1 48 France 00:44:08
52 DROUNAU ARTHUR   (4855) 00:44:39 MJU 5   14,1 49 France 00:44:35
53 GIRAUD BAPTISTE   (4529) 00:44:41 MM2 6 CS HENNESSY 14,1 50 France 00:44:39
54 CLEDE SYLVAIN   (4484) 00:44:47 MM0 3   14,1 51 France 00:44:39
55 DAVIAUD RODRIGUE   (4575) 00:44:50 MM1 7 TEAM TARANSAUD 14,1 52 France 00:44:48
56 ROBINAUD JOSEPHINE   (4707) 00:44:51 FSE 2 COGNAC AC 14 4 France 00:44:47
57 BROTIER GABIN   (4555) 00:44:53 MES 3 amicale sapeur pompier Jarnac 14 53 France 00:44:41
58 MIGNON SEBASTIEN   (4859) 00:44:56 MM2 7 LES P'TITS DIABLUTINS 14 54 France 00:44:52
59 CASTINEL RÉMI   (4852) 00:45:08 MSE 18   14 55 France 00:45:01
60 PALLUAS PHILIPPE   (4861) 00:45:27 MM4 4 Triath club royannais 13,9 56 France 00:45:21
61 JOANNES PATRICK   (4912) 00:45:31 MM6 1 Team ouins ouins 13,8 57 France 00:45:28
62 SARRAZIN JACK   (4286) 00:45:45 MM7 1 AC ST PALAIS 13,8 58 France 00:45:41
63 RAMPNOUX PASCAL   (4690) 00:45:49 MM4 5   13,7 59 France 00:45:43
64 MOREAU CHRISTOPHE   (4825) 00:45:55 MM4 6 GRAND ANGOULEME ATHLETISME 13,7 60 France 00:45:48
65 GIBOIN THÉOPHILE   (4684) 00:45:59 MM0 4   13,7 61 France 00:45:56
66 SCHENAL FLORIAN   (4464) 00:46:14 MM1 8 TEAM TARANSAUD 13,6 62 France 00:45:59
67 CHABROL UGO   (4891) 00:46:15 MJU 6   13,6 63 France 00:46:12
68 NAVARRO ANTOINE   (4985) 00:46:18 MM0 5 JSA ANGOULEME TRIATHLON 13,6 64 France 00:45:52
69 MENAGER ROMAIN   (4784) 00:46:26 MSE 19   13,6 65 France 00:46:26
70 ANDRIANARISON RIJA   (4520) 00:46:28 MSE 20   13,6 66 France 00:46:22
71 BIRON ADRIEN   (4782) 00:46:33 MSE 21 Poitiers Course d'Orientation 13,5 67 France 00:46:14
72 SURAULT EMMANUELLE   (4728) 00:46:40 FM1 2 JSA ANGOULEME TRIATHLON 13,5 5 France 00:46:30
73 MARTIN JEROME   (4589) 00:46:51 MM1 9   13,4 68 France 00:46:32
74 HERAUD CAROLE   (4200) 00:46:51 FSE 3 SPIRIDON 87 13,4 6 France 00:46:49
75 BLAINEAU JEAN FRANÇOIS   (4466) 00:46:52 MM5 2 JARNAC ATHLÉTISME 13,4 69 France 00:46:48
76 HOSTEING SIMON   (4927) 00:46:55 MCA 5   13,4 70 France 00:46:53
77 VERON PIERRE   (4752) 00:46:56 MSE 22   13,4 71 France 00:46:05
78 HOUGET BENOIT   (4956) 00:46:57 MJU 7 TEAM CHARENTES TRIATHLON 13,4 72 France 00:46:48
79 DE VERGEZAC GUILLAUME   (5047) 00:47:08 MCA 6 Optic 2000 Jarnac 13,4 73 France 00:46:56
80 ORDONNEAU BENOIT   (4973) 00:47:21 MM0 6   13,3 74 France 00:47:18
81 IRIART JULIEN   (4017) 00:47:23 MM0 7 Crossfit Salamandre - XoGym 13,3 75 France 00:46:38
82 CHAUMET MAXIME   (4916) 00:47:27 MSE 23   13,3 76 France 00:46:28
83 STURM MANUEL   (4873) 00:47:35 MSE 24   13,2 77 France 00:47:28
84 COQ TOM-RUBENS   (4180) 00:47:39 MCA 7 Valadié Emballages & PLV 13,2 78 France 00:47:30
85 VERLAINE JULIEN   (4491) 00:47:50 MSE 25   13,2 79 France 00:46:50
86 BOUCHER ERIC   (4762) 00:48:00 MM4 7 GARAGE LAURENT MARTIN 13,1 80 France 00:48:46
87 RAISON CHARLES   (4730) 00:48:07 MSE 26 PKF ARSILON 13,1 81 France 00:47:57
88 RICHARD CORENTIN   (4488) 00:48:09 MJU 8   13,1 82 France 00:47:15
89 BONNAUD EMILIE   (4950) 00:48:10 FSE 4   13,1 7 France 00:48:00
90 ROLIN STEVEN   (4822) 00:48:10 MSE 27   13,1 83 France 00:47:08
91 WILMART FLORIAN   (4109) 00:48:11 MSE 28 CSH HENNESSY 13,1 84 France 00:47:09
92 VANDAME CAROLINE   (4808) 00:48:16 FM0 1 COGNAC AC 13 8 France 00:48:11
93 CHAUVET DAMIEN   (4334) 00:48:16 MJU 9   13 85 France 00:48:07
94 BOURON NICOLAS   (4763) 00:48:18 MM0 8 GARAGE LAURENT MARTIN 13 86 France 00:48:06
95 GAUDUCHEAU JEAN MARIE   (5035) 00:48:20 MM4 8 Bernac 13 87 France 00:48:14
96 DE CIA HERVÉ   (4962) 00:48:24 MM3 5 CGED 13 88 France 00:47:43
97 MEVEL MÉLANIE   (4077) 00:48:25 FSE 5 KOALA 13 9 France 00:48:16
98 JANUSZEK BEATRICE   (4018) 00:48:30 FM3 1   13 10 France 00:48:30
99 LOPEZ ANTHONY   (4941) 00:48:32 MSE 29   13 89 France 00:48:29
100 TCHAKMAKDJIAN GWENDOLINE   (4021) 00:48:36 FSE 6   13 11 France 00:48:31
101 MOREAU GAEL   (4682) 00:48:37 MJU 10   13 90 France 00:48:08
102 FAIVRE PASCAL   (4924) 00:48:38 MM2 8 vélo club foussignac 13 91 France 00:48:29
103 CHANTAL VINCENT   (4955) 00:48:43 MSE 30   12,9 92 France 00:48:39
104 MAGNIER YOHAN   (4848) 00:48:50 MM1 10 CLUB LOISIRS MARTELL 12,9 93 France 00:48:16
105 CHAILLOU ALAIN   (4415) 00:48:51 MM5 3   12,9 94 France 00:48:43
106 RAVON MAXIME   (4367) 00:48:51 MSE 31   12,9 95 France 00:47:49
107 SAUVION NATHAN   (4340) 00:49:05 MES 4   12,8 96 France 00:48:24
108 GUILLAUD CÉDRIC   (4845) 00:49:19 MSE 32 CLUB LOISIRS MARTELL 12,8 97 France 00:48:16
109 GATEPAILLE SYLVAIN   (1075) 00:49:32 MM1 11 Les Touches Running 12,7 98 France 00:49:04
110 JOUSSE STANISLAS   (5032) 00:49:33 MSE 33   12,7 99 France 00:49:26
111 RICHARD LOUIS   (4489) 00:49:39 MCA 8   12,7 100 France 00:48:44
112 DUBUY JULES   (4672) 00:49:39 MJU 11   12,7 101 France 00:49:30
113 DESAUNAY BRICE   (4602) 00:49:40 MSE 34   12,7 102 France 00:48:36
114 COUTINOT MARC   (4805) 00:49:48 MM0 9 CS HENNESSY 12,6 103 France 00:49:09
115 DUMONTET PIERRICK   (4655) 00:49:54 MSE 35   12,6 104 France 00:49:22
116 YVONNET--JOUBERT JUSTINIEN   (4382) 00:49:55 MCA 9 Optic 2000 Jarnac 12,6 105 France 00:49:42
117 DE SUTTER FLORE   (4542) 00:49:55 FCA 1 Optic 2000 Jarnac 12,6 12 France 00:49:42
118 BESSE SABINE   (4160) 00:50:05 FM3 2 CA PLASSAC 12,6 13 France 00:50:02
119 FAURE KEVIN   (4935) 00:50:09 MSE 36   12,6 106 France 00:48:37
120 VIGNERIE MARLÈNE   (4497) 00:50:11 FSE 7 KM42 Saint just le martel 12,6 14 France 00:49:17
121 AUMONT ALEXANDRE   (4740) 00:50:16 MM0 10 ORANGE BLEUE 12,5 107 France 00:49:51
122 NICOLAS VALENTIN   (4294) 00:50:19 MSE 37 ORANGE BLEUE 12,5 108 France 00:49:59
123 DAGUERRE EMMANUEL   (4840) 00:50:21 MM3 6 CLUB LOISIRS MARTELL 12,5 109 France 00:49:56
124 PASQUET MARC   (4300) 00:50:37 MM0 11 AMICALE SAPEURS POMPIERS JARNAC 12,4 110 France 00:50:08
125 BOUTINOT XAVIER   (4517) 00:50:37 MM0 12 gimeuxbeach 12,4 111 France 00:50:24
126 ROCHE LAURENT   (4481) 00:50:43 MM5 4   12,4 112 France 00:50:35
127 COUDRET FLORENT   (4607) 00:50:43 MSE 38 ORANGE BLEUE 12,4 113 France 00:50:32
128 PHILIPPON MATTHIEU   (4363) 00:50:44 MM2 9 G2A 12,4 114 France 00:50:35
129 MADRENES FABIEN   (4213) 00:50:45 MM0 13   12,4 115 France 00:50:24
130 DUBOIS JEAN-JACQUES   (4571) 00:50:52 MM4 9   12,4 116 France 00:50:37
131 CARREIRA PEREIRA JOSE   (4703) 00:50:57 MM5 5 Cognac AC 12,4 117 France 00:50:55
132 TERRIERE MATHIAS   (4934) 00:51:08 MM0 14   12,3 118 France 00:51:05
133 FAVREAU MAGALI   (4576) 00:51:12 FM1 3 COGNAC AC 12,3 15 France 00:50:49
134 BINET AURÉLIEN   (4978) 00:51:12 MSE 39 COGNAC ATHLETIQUE CLUB 12,3 119 France 00:50:48
135 BELLAICHE MAËLYSSE   (4586) 00:51:14 FSE 8   12,3 16 France 00:51:11
136 PERRIER ELODIE   (4609) 00:51:16 FM0 2 COGNAC AC 12,3 17 France 00:50:53
137 YONNET ANDRE   (4883) 00:51:20 MM7 2   12,3 120 France 00:51:12
138 VIGOUROUX GOULVEN   (4961) 00:51:26 MSE 40   12,2 121 France 00:50:48
139 MOREAU ERIC   (4683) 00:51:27 MM3 7   12,2 122 France 00:50:58
140 VIGOUROUX JEAN-LUC   (4960) 00:51:30 MM4 10   12,2 123 France 00:50:51
141 CHENUDEAU BENOIT   (4846) 00:51:32 MSE 41 CLUB LOISIRS MARTELL 12,2 124 France 00:51:09
142 ANGIBAUD CAMILLE   (5028) 00:51:32 FSE 9   12,2 18 France 00:51:08
143 LICOUR WILNER   (4035) 00:51:34 MM0 15   12,2 125 France 00:50:17
144 LESCLAUZE-ERRECART FRANÇOIS   (4343) 00:51:34 MCA 10 Patxi the Boss !!!! 12,2 126 France 00:51:24
145 BARON LOUISE   (4899) 00:51:35 FES 2 STADIUM RUNNERS 12,2 19 France 00:51:27
146 VAUTIER BENOÎT   (5003) 00:51:36 MM3 8 sans appartenance 12,2 127 France 00:51:36
147 DESCHAMPS RENAUD   (4991) 00:51:36 MM0 16 STADIUM / AMIL EVENT 12,2 128 France 00:51:28
148 DESCHAMPS-GAYOT VALENTIN   (4901) 00:51:36 MSE 42 STADIUM RUNNERS 12,2 129 France 00:51:29
149 SARDAIN STEPHANE   (4093) 00:51:42 MM3 9   12,2 130 France 00:51:00
150 GALLOIS PASCAL   (4569) 00:51:46 MM3 10 LEBIHAN 12,2 131 France 00:51:46
151 RICHARDAUD BRUNO   (4733) 00:51:48 MM5 6 PKF ARSILON 12,2 132 France 00:51:38
152 RAYMONDEAU GUILLAUME   (4919) 00:51:51 MM1 12 CS HENNESSY 12,1 133 France 00:51:38
153 CESBRON ARTHUR   (4115) 00:51:54 MM0 17   12,1 134 France 00:51:42
154 SEGUIN STÉPHANIE   (4865) 00:51:54 FM3 3 US SAINTES ATHLETISME 12,1 20 France 00:51:43
155 BAZANTAY PIERRE   (5042) 00:51:57 MSE 43 Université des spiritueux 12,1 135 France 00:51:19
156 CAMPOT CHRISTIAN   (4100) 00:51:57 MM6 2 LEROY SOMER 12,1 136 France 00:51:42
157 CROSLAND PAUL   (4525) 00:51:57 MM4 11   12,1 137 France 00:51:42
158 LOISEAU ALEXIS   (4441) 00:52:00 MSE 44 Vendée U pays de la loire 12,1 138 France 00:50:53
159 JACQUES CORENTIN   (4535) 00:52:02 MSE 45 CS HENNESSY 12,1 139 France 00:50:58
160 BERTIER DIDIER   (4651) 00:52:06 MM4 12 CSH - HENNESSY 12,1 140 France 00:52:04
161 COQ JÉRÉMY   (4179) 00:52:07 MM2 10 Valadié Emballages & PLV 12,1 141 France 00:51:58
162 CAMPOS PASCAL   (4880) 00:52:09 MM4 13 GRAND ANGOULEME ATHLETISME 12,1 142 France 00:52:01
163 VIOLETTE VICTOR   (4557) 00:52:10 MM0 18   12,1 143 Luxembourg 00:51:11
164 BATIME PASCAL   (4072) 00:52:11 MM4 14   12,1 144 France 00:51:52
165 BONNET OLIVIER   (4553) 00:52:18 MM2 11   12 145 France 00:51:54
166 NEDJARI DIDIER   (5004) 00:52:19 MM3 11 Les runners Viennois 12 146 France 00:52:14
167 PITON ANAIS   (4905) 00:52:24 FSE 10 COGNAC AC 12 21 France 00:52:16
168 VINSONNEAU ANDRÉA   (4718) 00:52:25 FSE 11   12 22 France 00:52:14
169 DOAN MANON   (4377) 00:52:26 FSE 12   12 23 France 00:51:41
170 MORTIER LUCAS   (5031) 00:52:26 MSE 46   12 147 France 00:52:19
171 GOFFRETEAU THOMAS   (4390) 00:52:31 MSE 47 Team BOISUMAULT 12 148 France 00:52:02
172 BALLOUT QUENTIN   (4518) 00:52:32 MSE 48   12 149 France 00:52:20
173 LAPIERRE GAYLOR   (4876) 00:52:38 MM1 13   12 150 France 00:51:46
174 ABDALLAH GAETAN   (4813) 00:52:41 MSE 49   12 151 France 00:51:42
175 COUVRY ANTHONY   (4394) 00:52:44 MM0 19 TARANSAUD 11,9 152 France 00:52:38
176 COPPOLA ALEXANDRE   (4456) 00:52:51 MM3 12 POLY-IMPRIM' 11,9 153 France 00:52:28
177 LABOUREAU RODOLPHE   (4370) 00:52:52 MM1 14 ELAN SPORTIF DE TRELISSAC 11,9 154 France 00:51:51
178 BARDET JEAN -BAPTISTE   (4493) 00:52:53 MM0 20   11,9 155 France 00:51:48
179 GIBERT-NERAUDEAU EMMA   (4947) 00:52:54 FSE 13 COGNAC ATHLETIQUE CLUB 11,9 24 France 00:52:31
180 MAUBLANC JEAN-VICTOR   (4759) 00:52:57 MM0 21 Grand Cognac 11,9 156 France 00:52:16
181 SANDONA MICKAËL   (4954) 00:52:57 MSE 50   11,9 157 France 00:52:53
182 FIDELE SYLVAIN   (5005) 00:53:07 MM3 13 DOMONT athletisme 11,9 158 France 00:52:46
183 LEDENT PIERRE   (4952) 00:53:10 MM6 3   11,8 159 France 00:52:50
184 JANVIER PIERRICK   (5048) 00:53:16 MM4 15   11,8 160 France 00:52:41
185 BOULET VIANNEY   (4097) 00:53:16 MM0 22   11,8 161 France 00:53:04
186 BROUILLAUD THOMAS   (4910) 00:53:16 MSE 51 Rouillac run''n''trail 11,8 162 France 00:52:51
187 PAPIN WILFRID   (4136) 00:53:18 MM3 14 ACQC 11,8 163 France 00:53:04
188 DERRIER ROMAIN   (4604) 00:53:19 MSE 52   11,8 164 France 00:53:05
189 BAYLE ALICE   (4144) 00:53:20 FSE 14   11,8 25 France 00:53:07
190 CROIZET DAVID   (4547) 00:53:25 MM3 15 Optic 2000 11,8 165 France 00:53:17
191 FRICARD SANDRA   (4887) 00:53:28 FM1 4   11,8 26 France 00:53:02
192 CHATELAS MARIE-HÉLÈNE   (4898) 00:53:33 FM6 1 Océan triathlon 11,8 27 France 00:53:28
193 RITA FRANCK   (4896) 00:53:33 MM0 23   11,8 166 France 00:53:06
194 INQUEL GABRIELLE   (4098) 00:53:41 FJU 1   11,7 28 France 00:52:53
195 AUGIER MATTHIEU   (4824) 00:53:44 MM0 24   11,7 167 France 00:53:18
196 FEUILLET ETIENNE   (4892) 00:53:44 MM0 25   11,7 168 France 00:53:19
197 COSTA-SAVELLI RICHARD   (4269) 00:53:44 MM4 16 COURVOISIER JOGGING CLUB 11,7 169 France 00:53:39
198 CHAMOULAUD SEVERINE   (4933) 00:53:47 FM3 4 SPIRIDON 16 11,7 29 France 00:53:26
199 DOUCET DIDIER   (4314) 00:53:58 MM5 7 Optic 2000 Jarnac 11,7 170 France 00:53:58
200 NOBLOT JOACKIM   (4932) 00:53:58 MM1 15 CLUB LOISIRS BOINAUD 11,7 171 France 00:53:37
201 NOUET FREDERIC   (4563) 00:54:03 MM0 26   11,7 172 France 00:53:51
202 AUMONT ANTHONY   (4827) 00:54:03 MSE 53 """Les tritons du Grand Cognac""" 11,7 173 France 00:53:45
203 LAURANT PEGGY   (4166) 00:54:04 FM2 1 AJ MONETEAU 11,7 30 France 00:53:56
204 MAUSSION FLORENT   (4417) 00:54:04 MM2 12   11,7 174 France 00:53:41
205 LEVRAY JÉRÔME   (4709) 00:54:07 MM2 13   11,6 175 France 00:52:57
206 LHOMME FRANCK   (4650) 00:54:07 MM4 17   11,6 176 France 00:53:55
207 BROUILLARD CEDRIC   (4879) 00:54:07 MSE 54   11,6 177 France 00:53:56
208 SPRUGNOLI PIERRE   (4968) 00:54:08 MSE 55   11,6 178 France 00:53:46
209 LECLEIR AMBROISE   (4675) 00:54:08 MM3 16   11,6 179 France 00:52:59
210 BOUCHET ERIC   (4396) 00:54:09 MM4 18 Herbauges Athlé 44 11,6 180 France 00:53:59
211 CHAT BRUNO   (4800) 00:54:10 MM0 27   11,6 181 France 00:54:08
212 GEAY SEBASTIEN   (4761) 00:54:15 MM0 28 GARAGE LAURENT MARTIN 11,6 182 France 00:53:16
213 BIGEL SÉBASTIEN   (4225) 00:54:18 MM1 16   11,6 183 France 00:53:58
214 NOUVEL MATHIS   (4347) 00:54:18 MSE 56   11,6 184 France 00:53:29
215 NOUVEL TITOUAN   (4120) 00:54:19 MSE 57   11,6 185 France 00:53:29
216 PAGEAUD DORINE   (4894) 00:54:20 FM2 2 TEAM OUINS OUINS 11,6 31 France 00:54:10
217 MAUBLANC MARINE   (5025) 00:54:22 FM0 3 Grand Cognac 11,6 32 France 00:53:42
218 DELALANDE ANNE-SOPHIE   (4147) 00:54:31 FM3 5   11,6 33 France 00:54:19
219 CHALEROUX FRÉDÉRIC   (4975) 00:54:38 MM0 29   11,5 186 France 00:56:59
220 TESSERON MATTEO   (4252) 00:54:43 MES 5 ROCHEFORT S.A. 11,5 187 France 00:53:42
221 MATHIAS HUGO   (5013) 00:54:48 MES 6 BACHE GABRIELSEN 11,5 188 France 00:54:48
222 BLUTEAU CORENTIN   (4698) 00:54:50 MSE 58 Royer 11,5 189 France 00:54:22
223 JACOUPY ETIENNE   (5033) 00:54:53 MSE 59 les tritons du grand cognac 11,5 190 France 00:54:32
224 VINCENT MANUEL   (4320) 00:54:55 MM5 8 nid d'abeille 11,5 191 France 00:54:28
225 SALA JULIEN   (4850) 00:55:02 MJU 12   11,4 192 France 00:54:59
226 GARNIER ROMAIN   (5014) 00:55:04 MM0 30   11,4 193 France 00:53:50
227 LLAMAS RAPHAEL   (4801) 00:55:04 MM1 17   11,4 194 France 00:53:52
228 VACHER NICOLAS   (4628) 00:55:04 MM1 18 team guibault 11,4 195 France 00:54:54
229 BOCQUIER MARYSE   (4307) 00:55:05 FSE 15 Raid'yon 11,4 34 France 00:54:45
230 HORN LE GUILLOU SABRINA   (4446) 00:55:06 FSE 16   11,4 35 France 00:54:47
231 BUSEYNE NANCY   (4361) 00:55:10 FM1 5 G2A Angoulême 11,4 36 France 00:55:03
232 GERAUD CHRISTOPHE   (4548) 00:55:11 MM2 14   11,4 196 France 00:54:55
233 HABER PIERRE   (4731) 00:55:16 MSE 60 PKF ARSILON 11,4 197 France 00:55:06
234 THEBAUD ROMAIN   (4150) 00:55:17 MSE 61   11,4 198 France 00:53:57
235 BRY MARTINE   (4216) 00:55:19 FM5 1 CA PLASSAC 11,4 37 France 00:55:15
236 BARBEAU OLIVIER   (4967) 00:55:27 MM2 15   11,4 199 France 00:55:24
237 PICAULT LUC   (4670) 00:55:28 MSE 62   11,4 200 France 00:55:08
238 DUCHIER/DROITECOUR MARC   (4751) 00:55:28 MM4 19   11,4 201 France 00:54:36
239 BISSEUIL DAVID   (4735) 00:55:29 MM1 19   11,4 202 France 00:54:53
240 DE RIVALS-MAZERES ELIE   (4661) 00:55:30 MM4 20   11,3 203 France 00:54:28
241 CHIRON DAMIEN   (4842) 00:55:33 MM0 31 CLUB LOISIRS MARTELL 11,3 204 France 00:54:59
242 JUDES THEO   (4031) 00:55:44 MES 7 Pousse-pieds de fouras 11,3 205 France 00:55:32
243 NOEL NICOLAS   (4332) 00:55:44 MES 8   11,3 206 France 00:55:04
244 DUMAIN PASCAL   (4713) 00:55:45 MM5 9   11,3 207 France 00:55:18
245 DUMAIN MARION   (4714) 00:55:45 FSE 17   11,3 38 France 00:55:19
246 TRILLOT FRANCK   (4258) 00:55:51 MM4 21   11,3 208 France 00:55:28
247 GOSSELIN JÉRÉMIE   (4885) 00:55:52 MM0 32   11,3 209 France 00:55:27
248 PAPILLON ÉRIC   (4712) 00:55:53 MM2 16   11,3 210 France 00:54:43
249 ROUGERON JEAN PAUL   (4248) 00:55:55 MM3 17 GASS SAUJON 11,3 211 France 00:54:46
250 POUPELIN PASCALE   (4405) 00:55:59 FM2 3 COGNAC AC 11,3 39 France 00:55:56
251 MENANTEAU STEPHANE   (4349) 00:56:01 MM5 10   11,2 212 France 00:55:37
252 BURRELL TABATHA   (4858) 00:56:03 FSE 18   11,2 40 France 00:55:08
253 NADOT-DUNOYER PAUL   (4428) 00:56:03 MJU 13   11,2 213 France 00:55:26
254 PEROLARI CLÉMENT   (4574) 00:56:04 MSE 63   11,2 214 France 00:55:09
255 GUERIN LUC   (5030) 00:56:11 MSE 64   11,2 215 France 00:56:03
256 GUIBRETEAU JÉRÔME   (5000) 00:56:13 MM1 20   11,2 216 France 00:54:58
257 BERTHONNEAU ESTELLE   (4500) 00:56:13 FSE 19 Rouillac run''n''trail 11,2 41 France 00:55:57
258 GUENON MARINE   (4125) 00:56:14 FM1 6   11,2 42 France 00:55:57
259 LIÉTARD THÉO   (4620) 00:56:14 MSE 65 airspire 11,2 217 France 00:56:10
260 ROY KÉVIN   (4957) 00:56:16 MSE 66   11,2 218 France 00:55:14
261 BOURGES THIERRY   (4134) 00:56:16 MM3 18 ASA AMBARESIENN SPORT ENDURANCE 11,2 219 France 00:55:23
262 WAYMEL AUGUSTIN   (4619) 00:56:16 MSE 67 airspire 11,2 220 France 00:56:13
263 VIGNAUD JORDAN   (4214) 00:56:16 MSE 68   11,2 221 France 00:55:53
264 CAFFIER NICOLAS   (4666) 00:56:19 MSE 69 airspire 11,2 222 France 00:56:16
265 DAYRIES PIERRE   (4853) 00:56:20 MM0 33   11,2 223 France 00:55:08
266 RABADAN SILOÉ   (4246) 00:56:22 FSE 20   11,2 43 France 00:55:59
267 CORNUT MATHIEU   (4584) 00:56:35 MJU 14   11,1 224 France 00:56:05
268 LIVERTON CAMILLE   (4570) 00:56:36 FES 3 COGNAC AC 11,1 44 France 00:56:35
269 ROUX YOANN   (4662) 00:56:46 MM2 17   11,1 225 France 00:55:50
270 DOUCET BERTILLE   (4323) 00:56:46 FSE 21 Optic 2000 Jarnac 11,1 45 France 00:56:19
271 RIBEREAU KELIAN   (5015) 00:56:48 MES 9 TONNELLERIE DOREAU 11,1 226 France 00:55:51
272 GAUTIER JIMMY   (4687) 00:56:48 MM3 19   11,1 227 France 00:56:41
273 DURAND ROMAIN   (4342) 00:56:54 MM1 21   11,1 228 France 00:56:06
274 MONTEIRO DIAS ANTOINE   (4206) 00:56:57 MM0 34 TEAM TARANSAUD 11,1 229 France 00:56:40
275 PLASSERAUD FRANÇOISE   (4263) 00:56:59 FM5 2 BRAUD AC 11,1 46 France 00:56:25
276 BERTHELOT BERNARD   (4123) 00:57:00 MM4 22   11,1 230 France 00:56:56
277 COUTANCIN VERONIQUE   (4124) 00:57:00 FHANDI 1   11,1 47 France 00:56:55
278 LANDRY CLÉMENT   (4644) 00:57:04 MSE 70   11 231 France 00:55:45
279 FOURNEAU RAPHAEL   (4860) 00:57:04 MM3 20   11 232 France 00:56:40
280 SIMON DOMINIQUE   (4211) 00:57:04 MM5 11   11 233 France 00:56:40
281 BÉTRAN BENJAMIN   (5022) 00:57:06 MSE 71 Université des spiritueux 11 234 France 00:56:28
282 DABOUT MATHILDE   (4270) 00:57:07 FM0 4   11 48 France 00:56:40
283 ALLARD PASCAL   (4249) 00:57:07 MM4 23 ANGERS ATHLE* 11 235 France 00:56:43
284 TURPAULT WILLIAM   (4582) 00:57:09 MSE 72   11 236 France 00:57:09
285 BAYNAT LOUISE   (4780) 00:57:14 FSE 22   11 49 France 00:56:57
286 SOLVE MARION   (4999) 00:57:15 FM0 5   11 50 France 00:56:02
287 LE DOARE MORGAN   (4460) 00:57:16 MM1 22 ORANGE BLEUE 11 237 France 00:56:51
288 GERARD CYRIL   (5011) 00:57:17 MM0 35 ORANGE BLEUE 11 238 France 00:56:52
289 MADRENES JEAN-CLAUDE   (4212) 00:57:19 MM6 4   11 239 France 00:57:14
290 MOISE PHILIPPE   (4583) 00:57:22 MM6 5 team ouins ouins trail running 11 240 France 00:57:15
291 IDRES LOIC   (4937) 00:57:23 MSE 73   11 241 France 00:56:25
292 DAVOUST ALEXANDRE   (4994) 00:57:24 MM0 36   11 242 France 00:55:51
293 BAHOUGNE NADEGE   (4838) 00:57:26 FM2 4 LOISIRS MARTELL 11 51 France 00:57:03
294 ABBA UGO   (4974) 00:57:27 MSE 74 Grand cognac 11 243 France 00:56:48
295 BLAYAC CLÉMENTINE   (4993) 00:57:27 FSE 23 Grand cognac 11 52 France 00:56:48
296 BALLOUT BERNARD   (4669) 00:57:27 MM4 24 TEAM TARANSAUD 11 244 France 00:57:27
297 PARCELIER CLÉMENTINE   (4424) 00:57:28 FSE 24   11 53 France 00:57:16
298 ANGIBAUD FANNY   (5029) 00:57:30 FM3 6 COGNAC AC 11 54 France 00:57:06
299 BERLAND FREDERIC   (4290) 00:57:30 MM2 18   11 245 France 00:56:38
300 MAUSSION RÉMI   (4357) 00:57:31 MSE 75 GRAND ANGOULEME ATHLÉTISME 11 246 France 00:56:41
301 BENAROUS SALIM   (4536) 00:57:34 MM2 19 Optic 2000 Jarnac 10,9 247 France 00:56:58
302 LAPOUGE KEVIN   (4310) 00:57:36 MM0 37   10,9 248 France 00:57:36
303 DOUCET NADINE   (4313) 00:57:37 FM4 1 Optic 2000 Jarnac 10,9 55 France 00:57:10
304 SIMIER ALBAN   (4750) 00:57:38 MM3 21 Koala 10,9 249 France 00:57:38
305 CHAOUA MEHDI   (4648) 00:57:40 MM0 38   10,9 250 France 00:57:40
306 LOGEAIS HUGUES   (4647) 00:57:42 MM6 6 CF CROUIN 10,9 251 France 00:56:36
307 LOGEAIS BENJAMIN   (4646) 00:57:43 MM0 39 CF CROUIN 10,9 252 France 00:56:37
308 FARCHAUD JULIEN   (5040) 00:57:49 MM1 23   10,9 253 France 00:56:28
309 COUAMAIS KARL   (4541) 00:57:51 MM2 20   10,9 254 France 00:56:39
310 BÉGOUIN TINO   (4743) 00:57:52 MJU 15   10,9 255 France 00:56:51
311 ROULLET-RENOLEAU FRANÇOIS   (4287) 00:57:53 MM0 40 HGC 10,9 256 France 00:57:09
312 FORESTIER PATRICK   (4404) 00:57:54 MM4 25   10,9 257 France 00:57:47
313 CHAPRON CYRIL   (4656) 00:57:59 MM2 21   10,9 258 France 00:56:56
314 BECHADE BRICE   (4426) 00:58:03 MM1 24   10,9 259 France 00:58:03
315 BOINAUD CHARLES   (4082) 00:58:03 MSE 76 CLUB LOISIRS BOINAUD 10,9 260 France 00:57:42
316 FAURE TIFFANY   (4419) 00:58:04 FSE 25   10,8 56 France 00:57:19
317 CLERGEAU VALENTIN   (4475) 00:58:05 MSE 77   10,8 261 France 00:57:21
318 POUILLOUX DAMIEN   (4468) 00:58:05 MM2 22 TEAM TARANSAUD 10,8 262 France 00:57:20
319 BESSON XAVIER   (4501) 00:58:05 MM1 25 CS HENNESSY 10,8 263 France 00:57:39
320 AKBAL NACER   (4450) 00:58:06 MM3 22 TEAM TARANSAUD 10,8 264 France 00:57:40
321 CORNEILLE JÉRÔME   (4299) 00:58:07 MM3 23   10,8 265 France 00:57:44
322 BLIN NATHANAEL   (4266) 00:58:08 MSE 78   10,8 266 France 00:57:23
323 VALADOU NICOLAS   (4010) 00:58:13 MM0 41 CS Hennessy 10,8 267 France 00:58:01
324 MALLET NICOLAS   (4322) 00:58:15 MM2 23   10,8 268 France 00:57:50
325 DAUBA FABIEN   (4101) 00:58:17 MM2 24   10,8 269 France 00:58:10
326 DE SUTTER BOUYER LAETITIA   (4772) 00:58:19 FM2 5 Optic 2000 Jarnac 10,8 57 France 00:57:28
327 HENNEQUIN LAETITIA   (4189) 00:58:20 FM2 6   10,8 58 France 00:57:05
328 GROLLEAU ERIC   (4798) 00:58:23 MM5 12   10,8 270 France 00:57:39
329 VIEILLE CESSAY MARC   (4616) 00:58:24 MM0 42 airspire 10,8 271 France 00:58:16
330 QUEFFELEC AURÉLIEN   (4251) 00:58:25 MES 10 APPE 10,8 272 France 00:57:26
331 LAPORTE VALENTINE   (4196) 00:58:26 FSE 26   10,8 59 France 00:57:16
332 VOITURET CHRIS   (4847) 00:58:28 FM0 6 CLUB LOISIRS MARTELL 10,8 60 France 00:58:28
333 GALLIOT BENJAMIN   (4506) 00:58:28 MSE 79   10,8 273 France 00:57:38
334 MECHAIN DOMINIQUE   (4133) 00:58:30 MM4 26   10,8 274 France 00:57:16
335 LACOUTURE AURÉLIEN   (4766) 00:58:33 MSE 80   10,8 275 France 00:58:12
336 GAUTIER AGATHE   (4478) 00:58:34 FSE 27   10,8 61 France 00:58:13
337 RAGONNAUD GUILLAUME   (4641) 00:58:34 MSE 81   10,8 276 France 00:58:34
338 SAIVRES FANNY   (4262) 00:58:39 FJU 2   10,7 62 France 00:58:01
339 NAJI LINDA   (5016) 00:58:40 FSE 28   10,7 63 France 00:58:28
340 KAMMAH MARIE   (4175) 00:58:40 FM0 7   10,7 64 France 00:57:39
341 CREUZARD TEDDY   (4814) 00:58:40 MSE 82   10,7 277 France 00:57:34
342 COURTOIS CLAIRE   (4851) 00:58:47 FSE 29 COGNAC ATHLETIQUE CLUB 10,7 65 France 00:57:35
343 LECLERC LÉNA   (4511) 00:58:58 FSE 30   10,7 66 France 00:58:46
344 PASQUET PHILIPPE   (4806) 00:59:00 MM4 27   10,7 278 France 00:58:46
345 AUVIN MELANIE   (4076) 00:59:04 FSE 31   10,7 67 France 00:59:04
346 GOLDBERG SYLVAIN   (4162) 00:59:08 MM4 28 BPBO ESCALQUENS 10,7 279 France 00:58:29
347 ROBERT KEVIN   (4700) 00:59:08 MSE 83 Royer 10,7 280 France 00:57:54
348 CHENE ALAN   (4914) 00:59:11 MSE 84 TONNELLERIE DOREAU 10,6 281 France 00:58:13
349 GUILLON PIERRICK   (4407) 00:59:12 MSE 85   10,6 282 France 00:58:17
350 JOUIN THIERRY   (4233) 00:59:15 MM2 25 Les Touches Running 10,6 283 France 00:58:47
351 DEXET SARAH   (4043) 00:59:15 FM1 7   10,6 68 France 00:59:09
351 DE SA ANA   (4454) 00:59:15 FM3 7   10,6 68 France 00:58:15
352 GUIMARAES MANUEL   (4114) 00:59:16 MM3 24   10,6 284 France 00:58:26
353 GOUJON YOHANN   (4198) 00:59:16 MM1 26   10,6 285 France 00:58:25
354 SWYGEDAUW MARINE   (4105) 00:59:17 FSE 32   10,6 69 France 00:58:41
355 VASH ANTOINE   (4987) 00:59:20 MSE 86   10,6 286 France 00:58:38
356 BRION JACQUES   (4107) 00:59:22 MM3 25 ACQC 10,6 287 France 00:59:07
357 MESNARD FRANÇOIS   (4386) 00:59:24 MSE 87 Team BOISUMAULT 10,6 288 France 00:58:55
358 DUFOUR ELODIE   (4777) 00:59:27 FM0 8   10,6 70 France 00:59:17
359 BROSSILLON PIERRE   (5024) 00:59:30 MSE 88 Grand Cognac 10,6 289 France 00:58:50
360 NOEL AMANDINE   (4374) 00:59:30 FSE 33   10,6 71 France 00:59:14
361 TABOURIN EMMANUEL   (4906) 00:59:32 MM2 26   10,6 290 France 00:58:54
362 HURSON CHRISTIAN   (4758) 00:59:34 MM6 7 debauche 17 10,6 291 France 00:59:00
363 PICHOT FREDERIQUE   (4657) 00:59:34 FM3 7 COGNAC AC 10,6 72 France 00:59:26
364 GERARD YANN   (4250) 00:59:35 MES 11   10,6 292 France 00:58:35
365 THIERRY JENNIFER   (4113) 00:59:37 FM3 8   10,6 73 France 00:58:45
366 SAUVARD FABIEN   (4235) 00:59:37 MM3 26   10,6 293 France 00:58:45
367 BOUTON EMMANUEL   (4239) 00:59:39 MM2 27   10,6 294 France 00:59:05
368 BOUBIEN YVES   (4474) 00:59:41 MM7 3   10,6 295 France 00:59:10
369 THOMAS NOÉMIE   (4867) 00:59:43 FSE 34   10,5 74 France 00:59:37
370 RAYMONDEAU HÉLÈNE   (4067) 00:59:45 FSE 35   10,5 75 France 00:59:31
371 METTAVANT CLARA   (4791) 00:59:45 FSE 36   10,5 76 France 00:59:08
372 ARRAMY JULIE   (4434) 00:59:47 FSE 37 MAISON FERRAND 10,5 77 France 00:59:29
373 CHATAGNON ELISA   (4401) 00:59:48 FSE 38   10,5 78 France 00:58:32
374 MEUNIER JULIE   (4438) 00:59:49 FSE 39 MAISON FERRAND 10,5 79 France 00:59:31
375 VITRAC NICOLE   (4036) 00:59:51 FM4 2 AC/GIGOUZAC SAINT GERMAIN 10,5 80 France 00:59:38
376 CAZAGOU PATRICE   (4341) 00:59:52 MM3 27 AC Gigouzac / St Germain 10,5 296 France 00:59:35
377 VALLET LAURA   (4138) 00:59:53 FES 4   10,5 81 France 00:59:35
378 BABEAU FRANÇOIS   (5008) 00:59:56 MM3 28   10,5 297 France 01:02:16
379 RICHARDEAU KARINE   (4598) 00:59:58 FM1 8   10,5 82 France 00:59:31
380 FOUGERON BLANDINE   (4636) 00:59:59 FJU 3   10,5 83 France 00:59:31
381 CAILLE MAXIME   (4988) 01:00:02 MHANDI 1   10,5 298 France 01:02:23
382 BONNARME CHIARA   (4544) 01:00:06 FM2 7   10,5 84 France 00:59:04
383 BODIN PASCALE   (4812) 01:00:07 FM4 3 ATHLETISME OLYMPIC PONTOIS 10,5 85 France 00:59:53
384 MICHAUD ETIENNE   (4221) 01:00:09 MSE 89 TEC Limousine 10,5 299 France 00:59:33
385 CROCHET PASCAL   (4915) 01:00:11 MM4 29   10,5 300 France 00:58:51
386 PARDES JOSIANE   (4400) 01:00:15 FM4 4 AC Gigouzac / St Germain 10,5 86 France 00:59:59
387 SOULAYRES DOMINIQUE-AMÉLIE   (4038) 01:00:15 FM6 2 AC gigouzac -sait germain 10,5 87 France 00:59:59
388 GALTIE LAURENT   (4330) 01:00:16 MM4 30 AC GIGOUZAC ST GERMAIN 10,5 301 France 00:59:59
389 CHAPRON SANDRINE   (4787) 01:00:19 FM3 9   10,4 88 France 01:00:02
390 SOUBIELLE FANNY   (4145) 01:00:20 FM0 9   10,4 89 France 00:59:05
391 PINEAU PASCAL   (5017) 01:00:25 MM4 31 LOISIRS MARTELL 10,4 302 France 00:59:49
392 BRUNAUD NICOLAS   (4722) 01:00:31 MM0 43 Lesloupsdelapero 10,4 303 France 00:59:31
393 GRIVET CYRIL   (4992) 01:00:31 MM2 28   10,4 304 France 01:00:02
394 MALLET JEAN-JACQUES   (4724) 01:00:32 MM5 13 17 SOUPAPES 10,4 305 France 01:00:01
395 BOINARD CYRILL   (4720) 01:00:33 MM2 29   10,4 306 France 01:00:01
396 LAROCHE STEPHANE   (4634) 01:00:33 MM4 32   10,4 307 France 01:00:16
397 BELLION STEPHANE   (4676) 01:00:36 MM2 30 LES IRREDUCTIBLES SIGOGNAUX 10,4 308 France 00:59:24
398 AUDEBERT LIONEL   (4635) 01:00:36 MM4 33 CSHENNESSY 10,4 309 France 01:00:04
399 BODET MARY   (4599) 01:00:37 FM2 8 LES IRREDUCTIBLES SIGOGNAUX 10,4 90 France 00:59:23
400 VASSELIN CHRISTELLE   (4532) 01:00:40 FM2 9 AVENTURES RUNNING SEGONZAC 10,4 91 France 00:59:54
401 SIMON DAMIEN   (4205) 01:00:40 MSE 90   10,4 310 France 00:59:24
402 VRILLAUD DOMINIQUE   (4562) 01:00:44 MM5 14   10,4 311 France 01:00:23
403 FEUILLET VINCENT   (4514) 01:00:44 MM0 44   10,4 312 France 00:59:43
404 BOIS MATHIEU   (5034) 01:00:48 MM2 31   10,4 313 France 01:00:45
405 LITAUDON PAULINE   (4695) 01:00:50 FSE 40   10,4 92 France 01:00:35
406 DUMON JEAN PIERRE   (4668) 01:00:50 MM7 4   10,4 314 France 01:00:17
407 LAFOND JOEL   (4737) 01:00:52 MM5 15 COURVOISIER JOGGING CLUB 10,4 315 France 01:00:00
408 BOTTAIS RÉGIS   (4054) 01:00:57 MM6 8   10,3 316 France 01:00:14
409 DENIS ANNE SOPHIE   (4768) 01:00:58 FSE 41   10,3 93 France 00:59:59
410 DELETRAZ ANNE MARINE   (4513) 01:00:59 FM1 9   10,3 94 France 01:00:01
411 BLANCHARD VINCENT   (4831) 01:00:59 MSE 91   10,3 317 France 01:00:43
412 DEBONNE CHLOÉ   (4440) 01:01:01 FSE 42   10,3 95 France 01:00:40
413 MERLE PASCAL   (4943) 01:01:02 MM5 16   10,3 318 France 01:00:57
414 JACQUET ISABELLE   (4930) 01:01:02 FM4 5 AVENTURES RUNNING SEGONZAC 10,3 96 France 01:00:17
415 LACROIX PHILIPPE   (4926) 01:01:06 MM4 34   10,3 319 France 01:01:06
416 DE WARREN ATHÉNAÏS   (5020) 01:01:15 FSE 43 Université des spiritueux 10,3 97 France 01:00:35
417 BRETHENOUX CORINNE   (4293) 01:01:15 FM4 6   10,3 98 France 01:00:44
418 LHOUMEAU MARGAUX   (4403) 01:01:21 FSE 44   10,3 99 France 01:00:44
419 DUDOGNON ANTOINE   (4944) 01:01:21 MSE 92   10,3 320 France 01:00:43
420 PUAUT SABRINA   (4980) 01:01:24 FM1 10   10,3 100 France 01:01:13
421 SOLA DOMINIQUE   (4058) 01:01:24 MM5 17 CREDIT MUTUEL DU SUD OUEST 10,3 321 France 01:00:40
422 CHRETIEN CORINNE   (4997) 01:01:32 FM3 10 KLESIA 10,2 101 France 01:01:10
423 LE DORZE JEANNE   (4821) 01:01:32 FM2 10   10,2 102 France 01:00:35
424 GALLOCHER FRANÇOIS   (4998) 01:01:32 MM5 18   10,2 322 France 01:01:10
425 PEROT XAVIER   (4704) 01:01:33 MM2 32   10,2 323 France 01:00:56
426 GAYOU MARCEL   (4881) 01:01:37 MM4 35   10,2 324 France 01:00:43
427 COHARD OCÉANE   (4786) 01:01:38 FES 5   10,2 103 France 01:00:51
428 MANDIN NATHALIE   (4152) 01:01:40 FM4 7   10,2 104 France 01:01:07
429 MOREL GÉRALDINE   (4482) 01:01:42 FM1 11 FABB 10,2 105 France 01:01:00
430 DEBIEN JULIE   (4510) 01:01:43 FSE 45   10,2 106 France 01:01:43
431 LAVIGNE CÉLINE   (4414) 01:01:44 FSE 46   10,2 107 France 01:01:26
432 CHAUVIN MARINE   (4439) 01:01:45 FSE 47 MAISON FERRAND 10,2 108 France 01:01:26
433 NAY ELOÏSE   (4783) 01:01:56 FM1 12   10,2 109 France 01:01:22
434 DUVERGER FRANÇOIS   (4789) 01:01:57 MM0 45 CMSO 10,2 325 France 01:01:11
435 TOUSSAINT ALEXIS   (4767) 01:01:58 MM0 46   10,2 326 France 01:01:23
436 PAVARD GHISLAINE   (4207) 01:01:59 FM6 3 AC GIGOUZAC/ST GERMAIN 10,2 110 France 01:01:46
437 DURANDET PHILIPPE   (4240) 01:02:00 MM0 47   10,2 327 France 01:01:25
438 COURTIN DAVID   (4587) 01:02:01 MM0 48 Sern 10,2 328 France 01:01:33
439 POULLAIN MARION   (4856) 01:02:03 FSE 48   10,2 111 France 01:01:59
440 PALLARD MONIQUE   (4828) 01:02:03 FM4 8   10,2 112 France 01:00:58
441 ROY AUDE   (4325) 01:02:08 FM1 13 ELAN SPORTIF DE TRELISSAC 10,1 113 France 01:01:08
442 BALZEAU BERENGER   (4595) 01:02:08 MSE 93   10,1 329 France 01:01:02
443 AUDEVARD COLLEAU MATHIAS   (5036) 01:02:09 MCA 11 ARE TP 10,1 330 France 01:01:27
444 RASSAT JEROME   (5037) 01:02:09 MM2 33   10,1 331 France 01:01:26
445 RIBIERE FABIEN   (4236) 01:02:10 MM3 29 Aucun Club 10,1 332 France 01:01:36
446 JOUIN AMANDINE   (4578) 01:02:10 FM0 10 anti virus 10,1 114 France 01:01:28
447 SCHIESER FABIENNE   (4295) 01:02:12 FM2 11   10,1 115 France 01:02:02
448 TURLAN LOLA   (4316) 01:02:16 FSE 49   10,1 116 France 01:01:54
449 ANGILBERT DOMINIQUE   (4594) 01:02:17 MM4 36 VIENNE BIATHLON 10,1 333 France 01:02:17
450 CAILLÉ SÉVERINE   (4936) 01:02:17 FM0 11   10,1 117 France 01:01:41
451 CHALOPIN CHRISTELLE   (4686) 01:02:19 FM3 11 LES COMPAGNONS DE LA CLOUÈRE 10,1 118 France 01:01:48
452 CAYLAR NATHALIE   (4540) 01:02:19 FM2 12 Optic 2000 Jarnac 10,1 119 France 01:01:29
453 DUMAS SÉBASTIEN   (4364) 01:02:20 MM2 34 Optic 2000 Jarnac 10,1 334 France 01:01:29
454 GUITTON CYRIL   (4949) 01:02:21 MM1 27 AVENTURE RUNNING SEGONZAC 10,1 335 France 01:01:35
455 JOLIBERT PIERRE   (4282) 01:02:24 MM5 19   10,1 336 France 01:01:11
456 LAFAYE JULIEN   (4063) 01:02:26 MM1 28   10,1 337 France 01:01:44
457 BONNEAU FRANÇOIS   (4946) 01:02:26 MM6 9   10,1 338 France 01:02:04
458 COLLAS DIDIER   (4131) 01:02:29 MM5 20   10,1 339 France 01:02:15
459 DUFRENE DAVID   (4611) 01:02:32 MM3 30   10,1 340 France 01:01:13
460 BRETHENOUX VALERIE   (4976) 01:02:33 FM4 9 GRAND ANGOULEME ATHLÉTISME 10,1 120 France 01:02:03
461 CLÉMENT AUDREY   (4618) 01:02:33 FSE 50 RRP 86 10,1 121 France 01:01:29
462 BRAUD ALICIA   (4411) 01:02:35 FM2 13   10,1 122 France 01:02:04
463 RENAUD ALEXANDRE   (4884) 01:02:36 MM0 49   10,1 341 France 01:01:59
464 BRAUD JEAN CHRISTOPHE   (4412) 01:02:37 MM3 31 RUN ACCUEIL 10,1 342 France 01:02:06
465 RIVEREAU CHRISTIAN   (4630) 01:02:37 MM5 21 team Hennessy 10,1 343 France 01:02:29
466 RIVEREAU CECILE   (4631) 01:02:38 FM4 10 C.S.Hennessy 10,1 123 France 01:02:29
467 LALU JULIEN   (4741) 01:02:39 MM2 35   10,1 344 France 01:01:26
468 PRULHO ROMAIN   (4606) 01:02:40 MM0 50   10,1 345 France 01:01:35
469 LAURENT CAROLE   (4444) 01:02:41 FM0 12   10 124 France 01:02:19
470 BROUSSOULOUX AURÉLIE   (4143) 01:02:43 FM2 14   10 125 France 01:02:36
471 POURPOINT BRUNO   (4463) 01:02:45 MM3 32 TEAM TARANSAUD 10 346 France 01:01:32
472 FAURIO THIERRY   (4301) 01:02:48 MM4 37   10 347 France 01:02:42
473 RAYMONDEAU RENÉ   (4064) 01:02:50 MM6 10   10 348 France 01:02:35
474 BAUDRY HELENE   (4564) 01:02:51 FM1 14 SANTORUN 10 126 France 01:02:03
475 GIRAUD CHRISTINE   (4778) 01:02:51 FM5 3   10 127 France 01:02:37
476 CAILLAUD BRUNO   (4836) 01:02:54 MM3 33 TONNELLERIE VICARD 10 349 France 01:02:28
477 VAN DONGEN ALLAN   (4264) 01:02:55 MSE 94   10 350 France 01:01:57
478 CLUT CHRISTIAN   (4917) 01:02:55 MM3 34 S/L CMO BASSENS 10 351 France 01:01:57
479 SALESSE PHILIPPE   (4977) 01:02:55 MM5 22   10 352 France 01:02:25
480 RIBEIRO JOSÉ   (4674) 01:02:57 MM5 23   10 353 France 01:02:37
481 LOUZOLO MATONDO GRÂCE   (4277) 01:02:57 MM1 29 EC SARTROUVILLE 10 354 France 01:02:16
482 CHIRON STANLEY   (4065) 01:02:58 MM0 51   10 355 France 01:02:44
483 GRAYON ANNE   (4893) 01:02:59 FSE 51   10 128 France 01:02:49
484 CAO ROBERTO   (1001) 01:03:01 MM4 38 runcard 10 356 Italie 01:02:03
485 VIOLETTE GAËLLE   (4558) 01:03:03 FM1 15   10 129 Luxembourg 01:02:05
486 BODET CHRISTOPHER   (4142) 01:03:04 MSE 95   10 357 France 01:02:07
487 BACCELLI MANON   (4959) 01:03:04 FSE 52 LOCHES 37 TRIATHLON 10 130 France 01:02:20
488 GOMES JUSTINE   (4231) 01:03:05 FM0 13 BPBO 31 ESCALQUENS 10 131 France 01:02:23
489 PIOFFET CAROLINE   (4479) 01:03:05 FSE 53   10 132 France 01:02:27
490 LAPENU CECILE   (4889) 01:03:06 FM3 12   10 133 France 01:01:53
491 DUPONT-LACOMBE STEPHANIE   (4844) 01:03:09 FM0 14 CLUB LOISIRS MARTELL 10 134 France 01:02:07
492 SORIN LUDOVIC   (4841) 01:03:10 MM1 30 CA PLASSAC 10 358 France 01:02:07
493 JOUIN STÉPHANIE   (4232) 01:03:14 FM2 15 Les Touches Running 10 135 France 01:02:47
494 BARDOULAT PASCAL   (4366) 01:03:15 MM6 11 JARNAC ATHLETISME 10 359 France 01:02:37
495 BOUCHON-BITAUD STEPHANE   (4545) 01:03:16 MM4 39 Team CS Hennessy 10 360 France 01:02:38
496 BOITEAU GHISLAIN   (4365) 01:03:18 MM4 40   10 361 France 01:03:18
497 BARBEAU ALAIN   (4373) 01:03:20 FM4 11   9,9 136 France 01:03:03
498 SERGENT JOSÉ   (4069) 01:03:21 MM3 35   9,9 362 France 01:02:05
499 LHAIRAUD LAURENT   (4773) 01:03:21 MM4 41   9,9 363 France 01:02:30
500 LHAIRAUD ALICE   (4024) 01:03:24 FM1 16   9,9 137 France 01:03:24
501 BERTRAND GARY   (4771) 01:03:26 MSE 96   9,9 364 France 01:03:26
502 BAUFANAIS STÉPHANE   (4702) 01:03:26 MM3 36   9,9 365 France 01:02:11
503 BURBAUD FREDY   (5021) 01:03:27 MM5 24 CS HENNESSY 9,9 366 France 01:02:57
504 BURBAUD ALAIN   (4652) 01:03:27 MM5 25 C S HENNESSY 9,9 367 France 01:02:56
505 HUNEAU SEBASTIEN   (4699) 01:03:28 MM0 52 Royer 9,9 368 France 01:02:46
506 MARCU CHANTAL   (4204) 01:03:29 FM5 4   9,9 138 France 01:02:55
507 ROGIER CHRISTINE   (4874) 01:03:30 FM7 1 AC ST PALAIS 9,9 139 France 01:02:57
508 BRYGO VIOLETTE   (4621) 01:03:33 FES 6 airspire 9,9 140 France 01:03:29
509 LAROCHE DOMINIQUE   (4614) 01:03:35 FM3 13 COGNAC AC 9,9 141 France 01:03:26
510 JOANNES DOMNIQUE   (4348) 01:03:38 MM5 26   9,9 369 France 01:03:13
511 GAILLARD YANNICK   (4849) 01:03:42 MM1 31   9,9 370 France 01:03:12
512 BOUBIEN YVETTE   (4473) 01:03:43 FM7 2   9,9 142 France 01:03:13
513 GEAY ANNE CECILE   (4572) 01:03:44 FM2 16   9,9 143 France 01:02:36
514 CHERGUI ALAIN   (4201) 01:03:48 MM6 12   9,9 371 France 01:03:33
515 RENARD MÉLISSA   (4436) 01:03:48 FSE 54 MAISON FERRAND 9,9 144 France 01:03:28
516 DESCHAMPS JONATHAN   (4592) 01:03:49 MM0 53   9,9 372 France 01:02:56
517 MATYSIAK MARION   (4909) 01:03:50 FSE 55   9,9 145 France 01:03:39
518 BRUMAUD NATHALIE   (4337) 01:03:54 FM4 12 SANTORUN 9,9 146 France 01:03:08
519 KAMMAH KHALID   (4229) 01:03:56 MM6 13   9,9 373 France 01:02:56
520 GUILMOT PASCAL   (4255) 01:03:58 MM5 27 KOALA KERHUON 9,8 374 France 01:03:42
521 DESBOIS JULIE   (4757) 01:03:59 FSE 56   9,8 147 France 01:03:14
522 RENAUDIN BAPTISTE   (4995) 01:04:02 MSE 97   9,8 375 France 01:03:05
523 CHAILLOU SONIA   (4151) 01:04:03 FM3 14 LES FOULÉES VERTES EN LIBOURNAIS 9,8 148 France 01:03:47
524 JARRY YVES   (4130) 01:04:03 MM5 28 FSPN 9,8 376 France 01:03:08
525 ANDRÉ JEAN-MARC   (4190) 01:04:05 MM4 42 anti virus 9,8 377 France 01:03:22
526 ROYER PIERRE   (4329) 01:04:08 MSE 98   9,8 378 France 01:03:45
527 WIESNER NATHALIE   (4164) 01:04:09 FM3 15   9,8 149 France 01:02:48
528 MESLIER CORINNE   (4515) 01:04:10 FM3 16   9,8 150 France 01:02:47
529 FAITY STANISLAS   (4642) 01:04:18 MSE 99   9,8 379 France 01:02:59
530 AUMONT OPHELIE   (4716) 01:04:19 FM0 15   9,8 151 France 01:03:27
531 LEVILLAIN CÉDRIC   (4706) 01:04:20 MM3 37   9,8 380 France 01:03:10
532 HOUSSIN - PAPILLON AURÉLIE   (4711) 01:04:20 FM2 17   9,8 152 France 01:03:09
533 HAMELAIN SYLVAIN   (4432) 01:04:20 MSE 100   9,8 381 France 01:03:04
534 POUJOIS FRÉDÉRIC   (4247) 01:04:21 MM2 36   9,8 382 France 01:04:01
535 RENETEAU JULIEN   (4140) 01:04:24 MSE 101 Sct 16 9,8 383 France 01:03:29
536 CHARRON JULIA   (4009) 01:04:24 FSE 57   9,8 153 France 01:03:31
537 GUICHARD CORALIE   (4900) 01:04:25 FM0 16   9,8 154 France 01:04:04
538 BOISSEVAL HAROLD   (4185) 01:04:25 MM3 38   9,8 384 France 01:03:39
539 D'ESPAGNAC ANNE   (4665) 01:04:27 FM2 18   9,8 155 France 01:03:44
540 DOUBLET THIERRY   (4492) 01:04:28 MM2 37 ORANGE BLEUE 9,8 385 France 01:03:18
541 TRIOULLIER CHRISTOPHE   (4409) 01:04:29 MM2 38 team oreco 9,8 386 France 01:03:13
542 BOUCHET CHRISTINE   (4397) 01:04:29 FM4 13   9,8 156 France 01:04:20
543 MASSOU LISON   (4521) 01:04:30 FJU 4   9,8 157 France 01:03:27
544 MASSOU PASCAL   (4522) 01:04:31 MM3 39   9,8 387 France 01:03:27
545 LIAUD FABRICE   (4843) 01:04:31 MM3 40 LOISIRS MARTELL 9,8 388 France 01:03:48
546 JURADO PEGGY   (4292) 01:04:32 FM2 19 BPBO31 9,8 158 France 01:03:53
547 JUET PAULINE   (4193) 01:04:35 FSE 58   9,8 159 France 01:03:59
548 GAUTHIER JEAN NOEL   (4495) 01:04:36 MM3 41 Ent.s.Nercillac reparsac 9,8 389 France 01:04:26
549 PANIER CHRISTOPHE   (4872) 01:04:37 MM2 39   9,7 390 France 01:04:10
550 ARSANDEAU AURELIE   (4451) 01:04:37 FM0 17 TEAM TARANSAUD 9,7 160 France 01:04:20
551 GONNORD ROHAN   (4769) 01:04:41 MSE 102   9,7 391 France 01:03:42
552 ROY MANON   (4920) 01:04:42 FSE 59   9,7 161 France 01:03:41
553 GODET STÉPHANIE   (4437) 01:04:49 FM2 20 MAISON FERRAND 9,7 162 France 01:04:12
554 COLTAT-GRAN NATHALIE   (4951) 01:04:50 FM4 14   9,7 163 France 01:03:47
555 PAYEN STEPHANIE   (4305) 01:04:50 FM2 21   9,7 164 France 01:04:41
556 TORTISSIER GABIN   (4509) 01:04:54 MES 12 en famille 9,7 392 France 01:04:23
557 SANDU RARES   (4567) 01:04:57 MSE 103 CS HENNESSY 9,7 393 France 01:03:35
558 NADAUD MAXIME   (4970) 01:05:07 MM3 42   9,7 394 France 01:04:52
559 GRUJARD MARIE   (4965) 01:05:07 FM1 17   9,7 165 France 01:04:15
560 GODINHO SAIANDA DAVID   (4971) 01:05:08 MM1 32   9,7 395 France 01:04:53
561 VEILLON SYLVIE   (4755) 01:05:09 FM2 22 LES IRREDUCTIBLES SIGOGNAUX 9,7 166 France 01:03:54
562 ROUX NADEGE   (4210) 01:05:11 FM5 5 AC ST PALAIS 9,7 167 France 01:04:37
563 LHOMME ORNIX NATHALIE   (4494) 01:05:11 FM4 15 FABB 9,7 168 France 01:04:58
564 CAUBEL NATHALIE   (4710) 01:05:12 FM1 18 AKRO BITUM 9,7 169 France 01:04:58
565 THOMAS AMAURY   (4819) 01:05:12 MM1 33   9,7 396 France 01:04:54
566 BOBE DOMINIQUE   (4471) 01:05:13 MM4 43 G2A Angoulême 9,7 397 France 01:05:00
567 MIGNERAT GAËLLE   (4470) 01:05:13 FM1 19 G2A Angoulême 9,7 170 France 01:04:59
568 RUGERY CEDRIC   (4601) 01:05:14 MM2 40   9,7 398 France 01:04:09
569 PLOUVIEZ OLIVIER   (4265) 01:05:17 MM3 43   9,6 399 France 01:05:00
570 PETRONELLI SABINE   (4176) 01:05:19 FM5 6 CMOB BASSENS 9,6 171 France 01:04:46
571 PETRONELLI MARIO   (5043) 01:05:19 MM5 29 CMOB BASSENS 9,6 400 France 01:04:46
572 STEPHAN SANDRINE   (4328) 01:05:22 FM2 23   9,6 172 France 01:05:10
573 KERVESTIN MARTINE   (4170) 01:05:27 FM3 17 footing landernéen 9,6 173 France 01:04:52
574 SORIANO BENEDICTE   (4331) 01:05:30 FM1 20   9,6 174 France 01:05:01
575 BRUET LORÉANE   (4596) 01:05:30 FSE 60   9,6 175 France 01:05:09
576 VERGNION ANA   (4585) 01:05:31 FM1 21   9,6 176 France 01:05:25
577 PINAUD BRUNO   (4388) 01:05:31 MM5 30 Team BOISUMAULT 9,6 401 France 01:05:01
578 ARNAL ZOÉLIE   (4078) 01:05:31 FJU 5   9,6 177 France 01:04:42
579 CHANTEGREIL ISABELLE   (4154) 01:05:31 FM6 4   9,6 178 France 01:05:09
580 ARNAL THIBAUD   (4079) 01:05:33 MM1 34   9,6 402 France 01:04:45
581 BERGERE PEGGY   (4158) 01:05:36 FM1 22   9,6 179 France 01:04:14
582 HERVOCHON ANGELIQUE   (4921) 01:05:37 FM1 23 Les Tritons du grand Cognac 9,6 180 France 01:04:55
583 N'DAW ALINE   (4877) 01:05:38 FM1 24   9,6 181 France 01:04:56
584 TITON ENORA   (4119) 01:05:39 FSE 61   9,6 182 France 01:04:50
585 ARCADE ETVYDA   (4362) 01:05:39 FM2 24   9,6 183 France 01:05:22
586 CADORET LAURENT   (4681) 01:05:40 MM1 35   9,6 403 France 01:04:27
587 MASSICOT MARTINE   (4477) 01:05:41 FM5 7   9,6 184 France 01:05:02
588 COSTA DOLORES   (4508) 01:05:41 FM3 18   9,6 185 France 01:05:10
589 BOINAUD REMI   (4610) 01:05:43 MM0 54 CLUB LOISIRS BOINAUD 9,6 404 France 01:05:43
590 CHEMIN CYRIL   (4839) 01:05:44 MM2 41 LOISIRS MARTELL 9,6 405 France 01:04:31
591 MONTEAUD DANIEL   (4524) 01:05:46 MM8 1 non licencié 9,6 406 France 01:04:40
592 LENORMAND QUENTIN   (4816) 01:05:49 MSE 104   9,6 407 France 01:05:14
593 DAMINET ISABELLE   (4764) 01:05:50 FM3 19 Koala 9,6 186 France 01:05:33
594 BERNARD FREDERIC   (4110) 01:05:50 MM3 44 anti virus 9,6 408 France 01:05:07
595 HERAUD NICOLE   (4234) 01:05:52 FM4 16   9,6 187 France 01:05:09
596 CAURIER MIKAEL   (4556) 01:05:52 MM2 42 anti virus 9,6 409 France 01:05:09
597 ROGER MORGANE   (4815) 01:05:52 FSE 62   9,6 188 France 01:05:17
598 PICARD LAURENT   (4742) 01:05:55 MM1 36   9,6 410 France 01:04:38
599 SOUAKRI LYAZID   (4215) 01:05:56 MM2 43   9,6 411 France 01:04:39
600 FAVIER DAVID   (4717) 01:05:56 MM0 55   9,6 412 France 01:05:56
601 RABIER THOMAS   (4979) 01:05:58 MSE 105   9,5 413 France 01:05:25
602 SCHILLINGER MARC   (4148) 01:05:59 MM3 45 BPBO 31 ESCALQUENS 9,5 414 France 01:05:18
603 PELTIER MARINA   (1145) 01:06:03 FM3 20 Les Pousses Pieds de Fouras 9,5 189 France 01:05:29
604 PETIT CLOÉ   (4174) 01:06:12 FM1 25   9,5 190 France 01:05:29
605 BOUYER SABRINA   (4169) 01:06:12 FM0 18 FABB 9,5 191 France 01:05:31
606 GARNIER NADINE   (4029) 01:06:15 FM4 17   9,5 192 France 01:05:43
607 DOMANEC GRAZIELLA   (4546) 01:06:17 FM2 25 XO TEAM 9,5 193 France 01:05:40
608 SCHIESER LILOU   (4296) 01:06:21 FJU 6   9,5 194 France 01:06:21
609 HARDUIN JÉROME   (4297) 01:06:22 MM3 46 nid d'abeille 9,5 415 France 01:05:55
610 JOURDAIN ALEXANDRE   (4146) 01:06:23 MSE 106   9,5 416 France 01:05:23
611 AUGER YVONNICK   (4559) 01:06:26 MM6 14   9,5 417 France 01:05:28
612 GRENOT CHRISTIAN   (4929) 01:06:29 MM7 5   9,5 418 France 01:05:13
613 QUENEL LOIC   (4795) 01:06:33 MM0 56 CS HENNESSY 9,5 419 France 01:05:55
614 ZENIK TOMAS   (4984) 01:06:34 MSE 107   9,5 420 France 01:05:56
615 SCHIESER JEROME   (1130) 01:06:34 MM2 44   9,5 421 France 01:06:34
616 ROSSIGNOL FANNY   (4192) 01:06:43 FM1 26   9,4 195 France 01:05:55
617 ROUX VIRGINIE   (4111) 01:06:47 FM0 19   9,4 196 France 01:06:34
618 CHERPY LUDIVINE   (4788) 01:06:52 FM2 26   9,4 197 France 01:06:13
619 DUCARRE GAËLLE   (4487) 01:06:53 FM0 20   9,4 198 France 01:05:36
620 DUCARRE FLORENT   (4486) 01:06:54 MM0 57   9,4 422 France 01:05:37
621 ROBERT JIMMY   (4797) 01:06:56 MJU 16   9,4 423 France 01:05:44
622 AFIAN LYDIA   (5001) 01:06:59 FM0 21   9,4 199 France 01:06:06
623 MICARD LOUNA   (4886) 01:07:03 FSE 63   9,4 200 France 01:06:19
624 BONNET AURÉLIEN   (4799) 01:07:04 MM0 58   9,4 424 France 01:06:42
625 LHOMME JUSTINE   (4653) 01:07:05 FSE 64   9,4 201 France 01:06:37
626 GOIS EVELYNE   (4163) 01:07:05 FM3 21   9,4 202 France 01:06:17
627 ARNAL VIRGINIE   (4080) 01:07:06 FM2 27   9,4 203 France 01:06:19
628 LOMBARD CEDRIC   (4723) 01:07:09 MM1 37   9,4 425 France 01:06:03
629 COMET CÉCILE   (4291) 01:07:10 MM2 45   9,4 426 France 01:06:03
630 DETERRE SOPHIE   (4230) 01:07:11 FM0 22   9,4 204 France 01:06:22
631 HAMELAIN AURÉLIE   (4433) 01:07:21 FSE 65   9,4 205 France 01:06:04
632 DE LUSTRAC BEATRICE   (4289) 01:07:22 FM4 18 kebab 9,4 206 France 01:06:04
633 LAURENT ANNE   (4066) 01:07:23 FM1 27 Les Runners Viennois 9,3 207 France 01:07:18
634 SCHILLINGER NOËLLE   (4149) 01:07:25 FM3 22 BPBO 31 ESCALQUENS 9,3 208 France 01:06:45
635 BRUNEAU CLAUDINE   (4302) 01:07:28 FM5 8   9,3 209 France 01:07:02
636 DÉLIAS CÉDRIC   (4580) 01:07:30 MHANDI 2   9,3 427 France 01:06:43
637 REVOL CHARLOTTE   (4155) 01:07:33 FSE 66   9,3 210 France 01:06:25
638 ALLEAU RENAUD   (4132) 01:07:34 MM4 44   9,3 428 France 01:07:19
639 PINTO NATHALIE   (4551) 01:07:37 FM3 23   9,3 211 France 01:07:28
640 ZAMBANO LAURENCE   (4897) 01:07:39 FM3 24 BPBO 31 ESCALQUENS 9,3 212 France 01:07:00
641 AYMERIC MELISSA   (4637) 01:07:39 FES 7   9,3 213 France 01:07:03
642 GUILLOIS FRANCOIS   (4117) 01:07:42 MM0 59   9,3 429 France 01:07:05
643 HIPEAU FLORIAN   (4608) 01:07:46 MSE 108   9,3 430 France 01:06:50
644 CHAIGNE MATTHIEU   (4942) 01:07:49 MM0 60   9,3 431 France 01:07:28
645 VAZELLE GRÉGORY   (4590) 01:07:56 MM3 47   9,3 432 France 01:06:34
646 ESQUERRE ARMELLE   (4747) 01:07:59 FM0 23   9,3 214 France 01:06:57
647 FONTAINE MELODY   (4890) 01:08:02 FSE 67   9,3 215 France 01:07:01
648 GUIBRETEAU ANNE-LINE   (4068) 01:08:04 FM1 28   9,3 216 France 01:06:49
649 VRILLAUD REMI   (4565) 01:08:04 MSE 109 St angeau 9,3 433 France 01:07:44
650 BONNET LAGARDE MAËLLE   (4882) 01:08:05 FCA 2 amicale sapeur pompier Jarnac 9,3 217 France 01:07:52
651 MARCOTTE JEROME   (4623) 01:08:05 MM1 38 airspire 9,3 434 France 01:07:58
652 IMBERT FLORENCE   (4274) 01:08:05 FM4 19 Team Cressé 9,3 218 France 01:08:05
653 BOCQUEREAU LAURENT   (4285) 01:08:05 MM1 39   9,3 435 France 01:07:34
654 HOSTEING HELENE   (4928) 01:08:06 FM2 28   9,2 219 France 01:07:19
655 LAMICHE-FAYE ANNE-SOPHIE   (4220) 01:08:06 FSE 68   9,2 220 France 01:06:55
656 FREY CLEMENT   (4734) 01:08:07 MSE 110 PKF ARSILON 9,2 436 France 01:07:31
657 FOUILLET GAELLE   (4288) 01:08:07 FM2 29   9,2 221 France 01:07:23
658 VIZGELIR JASMIN   (5039) 01:08:12 FES 8   9,2 222 France 01:10:32
659 JUET CAROLE   (4194) 01:08:16 FSE 69   9,2 223 France 01:07:40
660 REMAUD MARIE-LAURE   (4030) 01:08:25 FM4 20 Les Touches Running 9,2 224 France 01:08:00
661 BARBEY GERALDINE   (4122) 01:08:27 FM2 30   9,2 225 France 01:07:40
662 BOULESTEIX JOSETTE   (4048) 01:08:29 FM5 9   9,2 226 France 01:07:28
663 ANSO THOMAS   (5018) 01:08:29 MM0 61 candice fan club 9,2 437 France 01:07:05
664 PELLETANT (CLUB APCD16) AURÉLIE   (4945) 01:08:30 FM0 24 APCD16 9,2 227 France 01:07:29
665 PAGERIE MARIELLE   (4754) 01:08:31 FM3 25   9,2 228 France 01:07:32
666 PATARD GUILLAUME   (4793) 01:08:34 MM0 62   9,2 438 France 01:07:17
667 MORICE STEPHANE   (4794) 01:08:34 MM2 46   9,2 439 France 01:07:18
668 MOLINOT SEVERINE   (4245) 01:08:38 FM2 31   9,2 229 France 01:08:20
669 MARTINEAU BENJAMIN   (4779) 01:08:40 MSE 111   9,2 440 France 01:07:27
670 MAQUAT FREDERIC   (4654) 01:08:41 MM2 47 CA PLASSAC 9,2 441 France 01:07:26
671 GUILLEUX OLIVIER   (4402) 01:08:45 MM0 63   9,2 442 France 01:07:52
672 CHAPAT MARINE   (5027) 01:08:47 FSE 70   9,2 230 France 01:07:39
673 BELLET THOMAS   (5026) 01:08:51 MM0 64   9,1 443 France 01:07:43
674 BASCHENIS LIA   (4862) 01:08:52 FSE 71   9,1 231 France 01:08:21
675 GABORIT AURÉLIE   (4796) 01:08:55 FM1 29   9,1 232 France 01:07:48
676 DELAGE BEATRICE   (4729) 01:08:57 FM5 10 PKF ARSILON 9,1 233 France 01:08:20
677 BIRO COUPET SÉVERINE   (4161) 01:08:58 FM2 32 Herlies Randonnée Run 9,1 234 France 01:08:30
678 AKBAL FADILA   (4549) 01:08:59 FM2 33 TEAM TARANSAUD 9,1 235 France 01:08:35
679 VIGIER CARINE   (4560) 01:09:03 FM1 30   9,1 236 France 01:07:58
680 BOISSON CHARLÈNE   (4530) 01:09:03 FSE 72 CS HENNESSY 9,1 237 France 01:07:57
681 PETIT NOLWENN   (4112) 01:09:03 FM0 25 Team CS Hennessy 9,1 238 France 01:07:58
682 CHEDEVILLE MELODIE   (4408) 01:09:07 MM0 65 team oreco 9,1 444 France 01:07:56
683 SERPAUD CÉLINE   (4085) 01:09:11 FM1 31 CREDIT MUTUEL DU SUD OUEST 9,1 239 France 01:08:24
684 SOBANSKI MAXIME   (4857) 01:09:18 MSE 112   9,1 445 France 01:08:19
685 DE BUSSY MARIE   (4826) 01:09:19 FSE 73   9,1 240 France 01:08:17
686 ABAFFOUR JULIE   (4823) 01:09:20 FSE 74   9,1 241 France 01:08:18
687 PICARD CÉLINE   (4581) 01:09:20 FHANDI 2   9,1 242 France 01:08:32
688 LEGER ALICE   (4588) 01:09:25 FM1 32   9,1 243 France 01:08:38
689 MARTINEAU JOCELYNE   (4940) 01:09:53 FM1 33   9 244 France 01:09:17
690 ROCHER JEAN FRANCOIS   (4094) 01:09:54 MM7 6   9 446 France 01:09:44
691 ESNAUD SONIA   (4011) 01:09:57 FM1 34   9 245 France 01:09:16
692 GLAPPIER SOPHIE   (4430) 01:09:59 FM4 21 XOTEAM 9 246 France 01:09:21
693 BOURROUSSE CORINNE   (4613) 01:09:59 FM3 26   9 247 France 01:09:22
694 RAVET ADELINE   (4461) 01:10:02 FM0 26   9 248 France 01:09:15
695 CAILLAUD LAETITIA   (4820) 01:10:02 FM2 34   9 249 France 01:09:31
696 GUERINEAUD MYRIAM   (4854) 01:10:04 FM1 35   9 250 France 01:09:31
697 NE MATHILDE   (4008) 01:10:05 FM1 36   9 251 France 01:09:24
698 POURPOINT ANNICK   (4416) 01:10:06 FM4 22 AVENTURES RUNNING SEGONZAC 9 252 France 01:08:59
699 VERGER STEPHANIE   (4597) 01:10:10 FM1 37 LES IRREDUCTIBLES SIGOGNAUX 9 253 France 01:08:55
700 GIRAUD LINDO   (4312) 01:10:14 MSE 113   9 447 France 01:09:50
701 VIOLLEAU VALÉRIE   (4311) 01:10:16 FM3 27   9 254 France 01:09:52